sensor_id;sensor_type;location;lat;lon;timestamp;temperature;humidity
431;DHT22;202;48.764;9.172;2023-03-02T01:54:53;4.30;44.30
431;DHT22;202;48.764;9.172;2023-03-02T01:57:23;4.40;44.40
431;DHT22;202;48.764;9.172;2023-03-02T01:59:55;4.40;44.60
431;DHT22;202;48.764;9.172;2023-03-02T02:02:25;4.20;44.60
431;DHT22;202;48.764;9.172;2023-03-02T02:04:53;4.10;44.80
431;DHT22;202;48.764;9.172;2023-03-02T02:07:21;4.20;44.60
431;DHT22;202;48.764;9.172;2023-03-02T02:09:51;4.20;44.70
431;DHT22;202;48.764;9.172;2023-03-02T02:12:21;4.10;45.10
431;DHT22;202;48.764;9.172;2023-03-02T02:14:49;4.30;45.00
431;DHT22;202;48.764;9.172;2023-03-02T02:17:17;4.20;44.60
431;DHT22;202;48.764;9.172;2023-03-02T02:19:55;4.10;45.50
431;DHT22;202;48.764;9.172;2023-03-02T02:22:33;4.00;45.70
431;DHT22;202;48.764;9.172;2023-03-02T02:25:11;4.00;45.70
431;DHT22;202;48.764;9.172;2023-03-02T02:27:42;4.00;46.60
431;DHT22;202;48.764;9.172;2023-03-02T02:30:10;4.10;45.50
431;DHT22;202;48.764;9.172;2023-03-02T02:32:40;4.20;45.30
431;DHT22;202;48.764;9.172;2023-03-02T02:35:12;4.20;45.30
431;DHT22;202;48.764;9.172;2023-03-02T02:37:43;4.20;45.00
431;DHT22;202;48.764;9.172;2023-03-02T02:40:17;4.20;44.60
431;DHT22;202;48.764;9.172;2023-03-02T02:42:48;4.20;45.00
431;DHT22;202;48.764;9.172;2023-03-02T02:45:20;4.10;45.50
431;DHT22;202;48.764;9.172;2023-03-02T02:47:48;4.10;45.50
431;DHT22;202;48.764;9.172;2023-03-02T02:53:40;4.00;45.90
431;DHT22;202;48.764;9.172;2023-03-02T02:56:15;4.00;47.00
431;DHT22;202;48.764;9.172;2023-03-02T02:59:10;4.00;46.30
431;DHT22;202;48.764;9.172;2023-03-02T03:01:45;4.00;47.20
431;DHT22;202;48.764;9.172;2023-03-02T03:04:28;4.00;46.00
431;DHT22;202;48.764;9.172;2023-03-02T03:06:58;4.10;45.80
431;DHT22;202;48.764;9.172;2023-03-02T03:09:26;4.10;45.60
431;DHT22;202;48.764;9.172;2023-03-02T03:11:54;4.10;45.30
431;DHT22;202;48.764;9.172;2023-03-02T03:14:26;4.10;45.10
431;DHT22;202;48.764;9.172;2023-03-02T03:16:54;4.00;45.70
431;DHT22;202;48.764;9.172;2023-03-02T03:19:23;4.00;45.90
431;DHT22;202;48.764;9.172;2023-03-02T03:21:53;4.00;45.50
431;DHT22;202;48.764;9.172;2023-03-02T03:24:21;3.90;45.90
431;DHT22;202;48.764;9.172;2023-03-02T03:26:48;4.10;46.10
431;DHT22;202;48.764;9.172;2023-03-02T03:29:16;4.10;45.70
431;DHT22;202;48.764;9.172;2023-03-02T03:31:44;4.10;46.00
431;DHT22;202;48.764;9.172;2023-03-02T03:34:12;4.10;45.70
431;DHT22;202;48.764;9.172;2023-03-02T03:36:39;4.00;45.60
431;DHT22;202;48.764;9.172;2023-03-02T03:39:09;4.00;46.10
431;DHT22;202;48.764;9.172;2023-03-02T03:41:39;3.90;46.40
431;DHT22;202;48.764;9.172;2023-03-02T03:44:06;4.10;46.20
431;DHT22;202;48.764;9.172;2023-03-02T03:46:36;4.10;45.70
431;DHT22;202;48.764;9.172;2023-03-02T03:49:04;4.20;45.70
431;DHT22;202;48.764;9.172;2023-03-02T03:51:31;4.20;45.20
431;DHT22;202;48.764;9.172;2023-03-02T03:54:03;4.30;45.50
431;DHT22;202;48.764;9.172;2023-03-02T03:56:38;4.30;45.50
431;DHT22;202;48.764;9.172;2023-03-02T03:59:07;4.30;45.20
431;DHT22;202;48.764;9.172;2023-03-02T04:01:37;4.30;45.70
431;DHT22;202;48.764;9.172;2023-03-02T04:04:07;4.40;45.80
431;DHT22;202;48.764;9.172;2023-03-02T04:06:35;4.40;44.70
431;DHT22;202;48.764;9.172;2023-03-02T04:09:06;4.40;45.30
431;DHT22;202;48.764;9.172;2023-03-02T04:11:36;4.40;44.80
431;DHT22;202;48.764;9.172;2023-03-02T04:14:06;4.30;44.70
431;DHT22;202;48.764;9.172;2023-03-02T04:16:34;4.40;44.70
431;DHT22;202;48.764;9.172;2023-03-02T04:19:07;4.40;44.70
431;DHT22;202;48.764;9.172;2023-03-02T04:21:35;4.30;44.70
431;DHT22;202;48.764;9.172;2023-03-02T04:24:03;4.30;44.70
431;DHT22;202;48.764;9.172;2023-03-02T04:26:30;4.30;44.70
431;DHT22;202;48.764;9.172;2023-03-02T04:28:57;4.30;44.70
431;DHT22;202;48.764;9.172;2023-03-02T04:31:27;4.30;45.00
431;DHT22;202;48.764;9.172;2023-03-02T04:33:55;4.30;44.70
431;DHT22;202;48.764;9.172;2023-03-02T04:36:24;4.20;44.60
431;DHT22;202;48.764;9.172;2023-03-02T04:38:54;4.20;45.10
431;DHT22;202;48.764;9.172;2023-03-02T04:41:26;4.30;44.90
431;DHT22;202;48.764;9.172;2023-03-02T04:43:57;4.20;45.10
431;DHT22;202;48.764;9.172;2023-03-02T04:46:27;4.20;45.00
431;DHT22;202;48.764;9.172;2023-03-02T04:48:55;4.10;45.20
431;DHT22;202;48.764;9.172;2023-03-02T04:51:30;4.10;45.50
431;DHT22;202;48.764;9.172;2023-03-02T04:53:59;4.10;45.30
431;DHT22;202;48.764;9.172;2023-03-02T04:56:28;4.10;45.40
431;DHT22;202;48.764;9.172;2023-03-02T04:58:58;4.00;45.50
431;DHT22;202;48.764;9.172;2023-03-02T05:01:25;4.00;45.80
431;DHT22;202;48.764;9.172;2023-03-02T05:03:55;3.90;45.70
431;DHT22;202;48.764;9.172;2023-03-02T05:06:32;4.00;45.80
431;DHT22;202;48.764;9.172;2023-03-02T05:09:00;3.90;45.70
431;DHT22;202;48.764;9.172;2023-03-02T05:11:27;3.90;45.90
431;DHT22;202;48.764;9.172;2023-03-02T05:13:57;4.00;45.80
431;DHT22;202;48.764;9.172;2023-03-02T05:16:29;3.90;45.70
431;DHT22;202;48.764;9.172;2023-03-02T05:19:05;3.90;46.00
431;DHT22;202;48.764;9.172;2023-03-02T05:21:54;3.90;46.40
431;DHT22;202;48.764;9.172;2023-03-02T05:24:27;3.90;46.40
431;DHT22;202;48.764;9.172;2023-03-02T05:26:54;4.00;46.40
431;DHT22;202;48.764;9.172;2023-03-02T05:29:26;4.00;46.30
431;DHT22;202;48.764;9.172;2023-03-02T05:31:56;4.00;46.30
431;DHT22;202;48.764;9.172;2023-03-02T05:34:28;4.10;46.00
431;DHT22;202;48.764;9.172;2023-03-02T05:37:05;4.10;45.80
431;DHT22;202;48.764;9.172;2023-03-02T05:39:34;4.10;45.90
431;DHT22;202;48.764;9.172;2023-03-02T05:42:01;4.10;45.90
431;DHT22;202;48.764;9.172;2023-03-02T05:44:34;4.20;46.10
431;DHT22;202;48.764;9.172;2023-03-02T05:47:01;4.20;46.20
431;DHT22;202;48.764;9.172;2023-03-02T05:49:28;4.20;46.10
431;DHT22;202;48.764;9.172;2023-03-02T05:51:56;4.20;45.00
431;DHT22;202;48.764;9.172;2023-03-02T05:54:23;4.20;46.00
431;DHT22;202;48.764;9.172;2023-03-02T05:56:50;4.20;45.40
431;DHT22;202;48.764;9.172;2023-03-02T05:59:17;4.10;45.30
431;DHT22;202;48.764;9.172;2023-03-02T06:01:44;4.20;45.60
431;DHT22;202;48.764;9.172;2023-03-02T06:04:12;4.10;45.30
431;DHT22;202;48.764;9.172;2023-03-02T06:06:39;4.00;45.60
431;DHT22;202;48.764;9.172;2023-03-02T06:09:07;4.10;46.20
431;DHT22;202;48.764;9.172;2023-03-02T06:11:36;4.00;45.90
431;DHT22;202;48.764;9.172;2023-03-02T06:14:03;4.00;45.50
431;DHT22;202;48.764;9.172;2023-03-02T06:16:30;4.00;46.20
431;DHT22;202;48.764;9.172;2023-03-02T06:18:58;4.00;46.20
431;DHT22;202;48.764;9.172;2023-03-02T06:21:24;3.90;46.40
431;DHT22;202;48.764;9.172;2023-03-02T06:23:51;3.90;47.30
431;DHT22;202;48.764;9.172;2023-03-02T06:26:20;3.90;46.60
431;DHT22;202;48.764;9.172;2023-03-02T06:28:46;3.90;47.00
431;DHT22;202;48.764;9.172;2023-03-02T06:31:13;3.90;46.90
431;DHT22;202;48.764;9.172;2023-03-02T06:33:40;3.90;47.10
431;DHT22;202;48.764;9.172;2023-03-02T06:36:08;3.80;47.30
431;DHT22;202;48.764;9.172;2023-03-02T06:38:39;3.80;47.90
431;DHT22;202;48.764;9.172;2023-03-02T06:44:06;3.90;48.10
431;DHT22;202;48.764;9.172;2023-03-02T06:44:29;4.10;47.60
431;DHT22;202;48.764;9.172;2023-03-02T06:46:58;4.10;46.90
431;DHT22;202;48.764;9.172;2023-03-02T06:49:28;4.20;46.70
431;DHT22;202;48.764;9.172;2023-03-02T06:51:57;4.30;46.20
431;DHT22;202;48.764;9.172;2023-03-02T06:54:24;4.30;45.80
431;DHT22;202;48.764;9.172;2023-03-02T06:56:52;4.30;46.10
431;DHT22;202;48.764;9.172;2023-03-02T06:59:22;4.30;46.00
431;DHT22;202;48.764;9.172;2023-03-02T07:01:53;4.30;45.80
431;DHT22;202;48.764;9.172;2023-03-02T07:04:21;4.30;45.90
431;DHT22;202;48.764;9.172;2023-03-02T07:06:54;4.30;45.80
431;DHT22;202;48.764;9.172;2023-03-02T07:09:21;4.30;46.10
431;DHT22;202;48.764;9.172;2023-03-02T07:11:50;4.50;46.00
431;DHT22;202;48.764;9.172;2023-03-02T07:14:17;4.50;45.80
431;DHT22;202;48.764;9.172;2023-03-02T07:16:44;4.60;45.40
431;DHT22;202;48.764;9.172;2023-03-02T07:19:13;4.70;45.00
431;DHT22;202;48.764;9.172;2023-03-02T07:21:40;4.70;45.00
431;DHT22;202;48.764;9.172;2023-03-02T07:24:07;4.80;45.10
431;DHT22;202;48.764;9.172;2023-03-02T07:26:36;4.80;44.80
431;DHT22;202;48.764;9.172;2023-03-02T07:29:03;4.80;44.70
431;DHT22;202;48.764;9.172;2023-03-02T07:31:30;4.70;44.40
431;DHT22;202;48.764;9.172;2023-03-02T07:33:57;4.70;45.00
431;DHT22;202;48.764;9.172;2023-03-02T07:36:25;4.60;44.90
431;DHT22;202;48.764;9.172;2023-03-02T07:38:52;4.60;44.90
431;DHT22;202;48.764;9.172;2023-03-02T07:41:22;4.50;44.80
431;DHT22;202;48.764;9.172;2023-03-02T07:43:48;4.40;45.30
431;DHT22;202;48.764;9.172;2023-03-02T07:46:15;4.30;46.30
431;DHT22;202;48.764;9.172;2023-03-02T07:48:42;4.40;46.00
431;DHT22;202;48.764;9.172;2023-03-02T07:51:09;4.40;45.80
431;DHT22;202;48.764;9.172;2023-03-02T07:53:37;4.40;46.00
431;DHT22;202;48.764;9.172;2023-03-02T07:56:06;4.50;46.00
431;DHT22;202;48.764;9.172;2023-03-02T07:58:33;4.60;46.60
431;DHT22;202;48.764;9.172;2023-03-02T08:01:01;4.80;46.40
431;DHT22;202;48.764;9.172;2023-03-02T08:03:28;4.80;45.60
431;DHT22;202;48.764;9.172;2023-03-02T08:05:55;4.80;45.50
431;DHT22;202;48.764;9.172;2023-03-02T08:08:22;4.90;45.10
431;DHT22;202;48.764;9.172;2023-03-02T08:10:50;5.00;45.00
431;DHT22;202;48.764;9.172;2023-03-02T08:13:17;5.00;45.00
431;DHT22;202;48.764;9.172;2023-03-02T08:15:44;5.10;44.30
431;DHT22;202;48.764;9.172;2023-03-02T08:18:11;5.20;44.80
431;DHT22;202;48.764;9.172;2023-03-02T08:20:38;5.20;44.00
431;DHT22;202;48.764;9.172;2023-03-02T08:23:04;5.30;44.70
431;DHT22;202;48.764;9.172;2023-03-02T08:25:34;5.30;44.00
431;DHT22;202;48.764;9.172;2023-03-02T08:28:04;5.40;43.90
431;DHT22;202;48.764;9.172;2023-03-02T08:30:31;5.40;43.50
431;DHT22;202;48.764;9.172;2023-03-02T08:32:58;5.30;43.80
431;DHT22;202;48.764;9.172;2023-03-02T08:35:25;5.30;43.40
431;DHT22;202;48.764;9.172;2023-03-02T08:37:52;5.30;43.90
431;DHT22;202;48.764;9.172;2023-03-02T08:40:19;5.30;43.80
431;DHT22;202;48.764;9.172;2023-03-02T08:42:46;5.40;43.90
431;DHT22;202;48.764;9.172;2023-03-02T08:45:15;5.50;43.70
431;DHT22;202;48.764;9.172;2023-03-02T08:47:43;5.60;43.40
431;DHT22;202;48.764;9.172;2023-03-02T08:50:10;5.60;43.60
431;DHT22;202;48.764;9.172;2023-03-02T08:52:37;5.70;43.50
431;DHT22;202;48.764;9.172;2023-03-02T08:55:05;5.80;43.00
431;DHT22;202;48.764;9.172;2023-03-02T08:57:32;5.80;43.20
431;DHT22;202;48.764;9.172;2023-03-02T08:59:59;5.70;42.20
431;DHT22;202;48.764;9.172;2023-03-02T09:02:28;5.80;42.50
431;DHT22;202;48.764;9.172;2023-03-02T09:04:55;5.90;42.20
431;DHT22;202;48.764;9.172;2023-03-02T09:07:21;6.10;42.30
431;DHT22;202;48.764;9.172;2023-03-02T09:09:48;6.00;42.30
431;DHT22;202;48.764;9.172;2023-03-02T09:12:15;6.10;42.10
431;DHT22;202;48.764;9.172;2023-03-02T09:14:42;6.30;41.70
431;DHT22;202;48.764;9.172;2023-03-02T09:17:09;6.30;41.50
431;DHT22;202;48.764;9.172;2023-03-02T09:19:38;6.30;41.50
431;DHT22;202;48.764;9.172;2023-03-02T09:22:06;6.50;41.00
431;DHT22;202;48.764;9.172;2023-03-02T09:24:33;6.60;41.10
431;DHT22;202;48.764;9.172;2023-03-02T09:27:01;6.60;41.10
431;DHT22;202;48.764;9.172;2023-03-02T09:34:39;7.00;40.00
431;DHT22;202;48.764;9.172;2023-03-02T09:37:22;7.20;40.70
431;DHT22;202;48.764;9.172;2023-03-02T09:39:52;7.40;40.10
431;DHT22;202;48.764;9.172;2023-03-02T09:42:59;7.50;39.30
431;DHT22;202;48.764;9.172;2023-03-02T09:45:43;7.40;38.30
431;DHT22;202;48.764;9.172;2023-03-02T09:48:27;7.50;38.70
431;DHT22;202;48.764;9.172;2023-03-02T09:51:25;7.30;38.90
431;DHT22;202;48.764;9.172;2023-03-02T09:53:59;7.10;39.40
431;DHT22;202;48.764;9.172;2023-03-02T09:56:36;7.10;40.00
431;DHT22;202;48.764;9.172;2023-03-02T09:59:07;7.20;40.40
431;DHT22;202;48.764;9.172;2023-03-02T10:01:47;7.30;40.40
431;DHT22;202;48.764;9.172;2023-03-02T10:15:25;7.40;40.00
431;DHT22;202;48.764;9.172;2023-03-02T10:21:24;7.80;38.50
431;DHT22;202;48.764;9.172;2023-03-02T10:48:11;7.80;39.20
431;DHT22;202;48.764;9.172;2023-03-02T10:51:18;7.90;38.50
431;DHT22;202;48.764;9.172;2023-03-02T10:54:18;8.00;39.10
431;DHT22;202;48.764;9.172;2023-03-02T10:57:37;8.10;38.10
431;DHT22;202;48.764;9.172;2023-03-02T11:02:50;8.10;39.00
431;DHT22;202;48.764;9.172;2023-03-02T11:30:43;8.90;36.50
431;DHT22;202;48.764;9.172;2023-03-02T11:33:23;8.90;36.40
431;DHT22;202;48.764;9.172;2023-03-02T11:35:53;8.90;36.80
431;DHT22;202;48.764;9.172;2023-03-02T11:38:25;9.00;36.30
431;DHT22;202;48.764;9.172;2023-03-02T11:40:54;9.00;36.40
431;DHT22;202;48.764;9.172;2023-03-02T11:43:23;9.10;36.80
431;DHT22;202;48.764;9.172;2023-03-02T11:45:56;9.30;36.20
431;DHT22;202;48.764;9.172;2023-03-02T11:48:28;9.60;35.30
431;DHT22;202;48.764;9.172;2023-03-02T11:50:59;9.70;35.30
431;DHT22;202;48.764;9.172;2023-03-02T11:53:30;9.60;35.50
431;DHT22;202;48.764;9.172;2023-03-02T11:56:11;9.70;35.50
431;DHT22;202;48.764;9.172;2023-03-02T11:58:38;9.80;35.00
431;DHT22;202;48.764;9.172;2023-03-02T12:01:14;9.90;34.60
431;DHT22;202;48.764;9.172;2023-03-02T12:03:43;9.90;34.60
431;DHT22;202;48.764;9.172;2023-03-02T12:06:27;10.00;33.70
431;DHT22;202;48.764;9.172;2023-03-02T12:09:13;10.00;33.70
431;DHT22;202;48.764;9.172;2023-03-02T12:11:55;10.10;33.80
431;DHT22;202;48.764;9.172;2023-03-02T12:14:29;10.10;33.80
431;DHT22;202;48.764;9.172;2023-03-02T12:17:19;10.10;33.30
431;DHT22;202;48.764;9.172;2023-03-02T12:19:47;10.20;33.20
431;DHT22;202;48.764;9.172;2023-03-02T12:22:25;10.20;33.30
431;DHT22;202;48.764;9.172;2023-03-02T12:25:00;10.10;33.60
431;DHT22;202;48.764;9.172;2023-03-02T12:27:37;10.00;33.70
431;DHT22;202;48.764;9.172;2023-03-02T12:30:26;10.10;33.80
431;DHT22;202;48.764;9.172;2023-03-02T12:33:21;10.30;33.70
431;DHT22;202;48.764;9.172;2023-03-02T12:35:59;10.40;32.90
431;DHT22;202;48.764;9.172;2023-03-02T12:38:30;10.40;34.00
431;DHT22;202;48.764;9.172;2023-03-02T12:41:25;10.50;33.60
431;DHT22;202;48.764;9.172;2023-03-02T12:44:22;10.50;32.70
431;DHT22;202;48.764;9.172;2023-03-02T12:49:59;10.40;33.50
431;DHT22;202;48.764;9.172;2023-03-02T12:52:56;10.30;33.40
431;DHT22;202;48.764;9.172;2023-03-02T12:55:26;10.30;34.00
431;DHT22;202;48.764;9.172;2023-03-02T12:57:58;10.00;33.70
431;DHT22;202;48.764;9.172;2023-03-02T13:03:01;10.10;33.80
431;DHT22;202;48.764;9.172;2023-03-02T13:03:48;10.10;33.80
431;DHT22;202;48.764;9.172;2023-03-02T13:06:52;10.30;34.00
431;DHT22;202;48.764;9.172;2023-03-02T13:10:26;10.30;33.90
431;DHT22;202;48.764;9.172;2023-03-02T13:13:17;10.30;34.00
431;DHT22;202;48.764;9.172;2023-03-02T13:16:56;10.40;34.10
431;DHT22;202;48.764;9.172;2023-03-02T13:19:47;10.40;33.90
431;DHT22;202;48.764;9.172;2023-03-02T13:22:39;10.40;34.10
431;DHT22;202;48.764;9.172;2023-03-02T13:32:43;10.30;34.00
431;DHT22;202;48.764;9.172;2023-03-02T13:35:59;10.40;33.90
431;DHT22;202;48.764;9.172;2023-03-02T13:39:19;10.40;34.10
431;DHT22;202;48.764;9.172;2023-03-02T13:41:54;10.40;34.10
431;DHT22;202;48.764;9.172;2023-03-02T13:45:05;10.50;33.90
431;DHT22;202;48.764;9.172;2023-03-02T13:47:26;10.50;33.90
431;DHT22;202;48.764;9.172;2023-03-02T13:50:54;10.50;33.80
431;DHT22;202;48.764;9.172;2023-03-02T13:53:01;10.60;33.40
431;DHT22;202;48.764;9.172;2023-03-02T13:55:53;10.60;33.50
431;DHT22;202;48.764;9.172;2023-03-02T13:58:21;10.60;33.20
431;DHT22;202;48.764;9.172;2023-03-02T14:23:30;10.60;34.20
431;DHT22;202;48.764;9.172;2023-03-02T14:25:59;10.70;33.90
431;DHT22;202;48.764;9.172;2023-03-02T14:28:32;10.70;33.70
431;DHT22;202;48.764;9.172;2023-03-02T14:31:09;10.70;34.00
431;DHT22;202;48.764;9.172;2023-03-02T14:34:25;10.60;33.80
431;DHT22;202;48.764;9.172;2023-03-02T14:41:02;10.60;34.20
431;DHT22;202;48.764;9.172;2023-03-02T14:44:19;10.60;34.20
431;DHT22;202;48.764;9.172;2023-03-02T14:47:36;10.60;34.20
431;DHT22;202;48.764;9.172;2023-03-02T14:50:15;10.60;34.20
431;DHT22;202;48.764;9.172;2023-03-02T14:53:12;10.70;34.30
431;DHT22;202;48.764;9.172;2023-03-02T14:56:31;10.70;34.30
431;DHT22;202;48.764;9.172;2023-03-02T14:59:11;10.70;33.90
431;DHT22;202;48.764;9.172;2023-03-02T15:01:45;10.60;34.20
431;DHT22;202;48.764;9.172;2023-03-02T15:04:35;10.70;34.30
431;DHT22;202;48.764;9.172;2023-03-02T15:07:22;10.80;34.30
431;DHT22;202;48.764;9.172;2023-03-02T15:10:24;10.80;33.80
431;DHT22;202;48.764;9.172;2023-03-02T15:13:31;10.80;34.10
431;DHT22;202;48.764;9.172;2023-03-02T15:16:35;10.70;33.90
431;DHT22;202;48.764;9.172;2023-03-02T15:19:09;10.70;34.30
431;DHT22;202;48.764;9.172;2023-03-02T15:22:30;10.70;34.30
431;DHT22;202;48.764;9.172;2023-03-02T15:25:05;10.70;34.30
431;DHT22;202;48.764;9.172;2023-03-02T15:27:51;10.70;34.30
431;DHT22;202;48.764;9.172;2023-03-02T15:30:32;10.70;34.30
431;DHT22;202;48.764;9.172;2023-03-02T15:33:18;10.70;34.30
431;DHT22;202;48.764;9.172;2023-03-02T15:35:53;10.70;34.30
431;DHT22;202;48.764;9.172;2023-03-02T15:38:42;10.70;34.30
431;DHT22;202;48.764;9.172;2023-03-02T15:41:30;10.70;34.30
431;DHT22;202;48.764;9.172;2023-03-02T15:44:05;10.70;34.30
431;DHT22;202;48.764;9.172;2023-03-02T15:46:58;10.70;34.30
431;DHT22;202;48.764;9.172;2023-03-02T15:49:32;10.70;34.30
431;DHT22;202;48.764;9.172;2023-03-02T15:52:11;10.60;34.20
431;DHT22;202;48.764;9.172;2023-03-02T15:54:59;10.60;34.20
431;DHT22;202;48.764;9.172;2023-03-02T16:01:23;10.60;34.20
431;DHT22;202;48.764;9.172;2023-03-02T16:09:57;10.60;34.20
431;DHT22;202;48.764;9.172;2023-03-02T16:12:41;10.60;34.20
431;DHT22;202;48.764;9.172;2023-03-02T16:15:29;10.60;34.20
431;DHT22;202;48.764;9.172;2023-03-02T16:18:23;10.60;34.30
431;DHT22;202;48.764;9.172;2023-03-02T16:21:14;10.50;34.20
431;DHT22;202;48.764;9.172;2023-03-02T16:24:03;10.50;34.40
431;DHT22;202;48.764;9.172;2023-03-02T16:27:07;10.50;34.80
431;DHT22;202;48.764;9.172;2023-03-02T16:29:41;10.50;34.90
431;DHT22;202;48.764;9.172;2023-03-02T16:32:26;10.50;34.60
431;DHT22;202;48.764;9.172;2023-03-02T16:35:32;10.50;34.90
431;DHT22;202;48.764;9.172;2023-03-02T16:38:26;10.50;35.20
431;DHT22;202;48.764;9.172;2023-03-02T16:41:49;10.40;35.30
431;DHT22;202;48.764;9.172;2023-03-02T16:44:38;10.40;35.50
431;DHT22;202;48.764;9.172;2023-03-02T16:47:37;10.30;35.60
431;DHT22;202;48.764;9.172;2023-03-02T16:50:22;10.30;35.70
431;DHT22;202;48.764;9.172;2023-03-02T16:56:16;10.20;36.00
431;DHT22;202;48.764;9.172;2023-03-02T16:59:17;10.10;36.00
431;DHT22;202;48.764;9.172;2023-03-02T17:19:36;9.60;38.10
431;DHT22;202;48.764;9.172;2023-03-02T17:22:41;9.60;38.30
431;DHT22;202;48.764;9.172;2023-03-02T17:26:09;9.60;38.60
431;DHT22;202;48.764;9.172;2023-03-02T17:33:05;9.50;38.60
431;DHT22;202;48.764;9.172;2023-03-02T17:42:58;9.40;39.10
431;DHT22;202;48.764;9.172;2023-03-02T17:49:23;9.10;38.90
431;DHT22;202;48.764;9.172;2023-03-02T20:56:01;6.20;46.30
431;DHT22;202;48.764;9.172;2023-03-02T20:59:05;6.20;46.30
431;DHT22;202;48.764;9.172;2023-03-02T21:02:25;6.20;46.90
431;DHT22;202;48.764;9.172;2023-03-02T21:08:50;6.20;47.10
431;DHT22;202;48.764;9.172;2023-03-02T21:14:31;6.50;46.50
431;DHT22;202;48.764;9.172;2023-03-02T21:20:19;6.70;45.50
431;DHT22;202;48.764;9.172;2023-03-02T21:22:48;6.80;45.30
431;DHT22;202;48.764;9.172;2023-03-02T21:25:15;6.90;45.10
431;DHT22;202;48.764;9.172;2023-03-02T21:27:43;6.90;45.10
431;DHT22;202;48.764;9.172;2023-03-02T21:30:22;6.90;44.80
431;DHT22;202;48.764;9.172;2023-03-02T21:32:53;6.90;45.10
431;DHT22;202;48.764;9.172;2023-03-02T21:35:21;6.90;44.90
431;DHT22;202;48.764;9.172;2023-03-02T21:37:54;6.90;44.60
431;DHT22;202;48.764;9.172;2023-03-02T21:40:23;6.90;44.70
431;DHT22;202;48.764;9.172;2023-03-02T21:42:51;6.90;44.70
431;DHT22;202;48.764;9.172;2023-03-02T21:45:19;6.90;44.70
431;DHT22;202;48.764;9.172;2023-03-02T21:47:48;6.90;44.70
431;DHT22;202;48.764;9.172;2023-03-02T21:50:28;6.90;44.60
431;DHT22;202;48.764;9.172;2023-03-02T21:53:09;6.80;44.90
431;DHT22;202;48.764;9.172;2023-03-02T21:56:00;6.80;44.90
431;DHT22;202;48.764;9.172;2023-03-02T21:58:54;6.80;45.10
431;DHT22;202;48.764;9.172;2023-03-02T22:01:43;6.70;45.10
431;DHT22;202;48.764;9.172;2023-03-02T22:04:30;6.60;45.30
431;DHT22;202;48.764;9.172;2023-03-02T22:07:33;6.50;45.50
431;DHT22;202;48.764;9.172;2023-03-02T22:10:02;6.60;45.70
431;DHT22;202;48.764;9.172;2023-03-02T22:12:33;6.60;46.10
431;DHT22;202;48.764;9.172;2023-03-02T22:15:00;6.60;45.80
431;DHT22;202;48.764;9.172;2023-03-02T22:17:30;6.50;45.60
431;DHT22;202;48.764;9.172;2023-03-02T22:19:57;6.50;45.60
431;DHT22;202;48.764;9.172;2023-03-02T22:22:27;6.60;45.90
431;DHT22;202;48.764;9.172;2023-03-02T22:25:01;6.40;45.90
431;DHT22;202;48.764;9.172;2023-03-02T22:27:47;6.50;47.10
431;DHT22;202;48.764;9.172;2023-03-02T22:30:18;6.50;46.20
431;DHT22;202;48.764;9.172;2023-03-02T22:36:24;6.60;46.60
431;DHT22;202;48.764;9.172;2023-03-02T22:39:05;6.50;46.20
431;DHT22;202;48.764;9.172;2023-03-02T22:41:50;6.50;46.20
431;DHT22;202;48.764;9.172;2023-03-02T22:44:22;6.40;46.10
431;DHT22;202;48.764;9.172;2023-03-02T22:47:18;6.40;46.10
431;DHT22;202;48.764;9.172;2023-03-02T22:50:17;6.20;46.30
431;DHT22;202;48.764;9.172;2023-03-02T22:53:08;6.30;46.40
431;DHT22;202;48.764;9.172;2023-03-02T22:55:46;6.30;46.50
431;DHT22;202;48.764;9.172;2023-03-02T22:58:26;6.30;46.40
431;DHT22;202;48.764;9.172;2023-03-02T23:01:19;6.40;46.50
431;DHT22;202;48.764;9.172;2023-03-02T23:04:13;6.40;46.50
431;DHT22;202;48.764;9.172;2023-03-02T23:06:44;6.50;46.60
431;DHT22;202;48.764;9.172;2023-03-02T23:09:34;6.50;46.50
431;DHT22;202;48.764;9.172;2023-03-02T23:12:11;6.50;46.50
431;DHT22;202;48.764;9.172;2023-03-02T23:14:47;6.50;46.60
431;DHT22;202;48.764;9.172;2023-03-02T23:17:49;6.60;46.60
431;DHT22;202;48.764;9.172;2023-03-02T23:20:45;6.40;46.40
431;DHT22;202;48.764;9.172;2023-03-02T23:23:14;6.50;46.50
431;DHT22;202;48.764;9.172;2023-03-02T23:25:51;6.40;46.40
431;DHT22;202;48.764;9.172;2023-03-02T23:28:18;6.50;46.10
431;DHT22;202;48.764;9.172;2023-03-02T23:30:45;6.40;45.80
431;DHT22;202;48.764;9.172;2023-03-02T23:33:12;6.40;46.10
431;DHT22;202;48.764;9.172;2023-03-02T23:35:39;6.30;46.50
431;DHT22;202;48.764;9.172;2023-03-02T23:38:11;6.20;47.10
431;DHT22;202;48.764;9.172;2023-03-02T23:40:37;6.20;47.20
431;DHT22;202;48.764;9.172;2023-03-02T23:43:07;6.20;48.00
431;DHT22;202;48.764;9.172;2023-03-02T23:45:35;6.30;47.10
431;DHT22;202;48.764;9.172;2023-03-02T23:48:02;6.30;47.30
431;DHT22;202;48.764;9.172;2023-03-02T23:50:31;6.30;47.10
431;DHT22;202;48.764;9.172;2023-03-02T23:53:02;6.30;47.00
